sensor_id;sensor_type;location;lat;lon;timestamp;pressure;altitude;pressure_sealevel;temperature;humidity
76853;BME280;65825;52.232;10.566;2023-04-24T00:01:44;99268.00;;;12.74;71.17
76853;BME280;65825;52.232;10.566;2023-04-24T00:04:10;99273.50;;;12.71;71.38
76853;BME280;65825;52.232;10.566;2023-04-24T00:06:36;99281.81;;;12.65;71.34
76853;BME280;65825;52.232;10.566;2023-04-24T00:09:02;99278.78;;;12.71;71.67
76853;BME280;65825;52.232;10.566;2023-04-24T00:11:28;99271.50;;;12.74;71.53
76853;BME280;65825;52.232;10.566;2023-04-24T00:13:54;99271.78;;;12.70;71.30
76853;BME280;65825;52.232;10.566;2023-04-24T00:16:19;99274.81;;;12.64;72.07
76853;BME280;65825;52.232;10.566;2023-04-24T00:18:45;99278.41;;;12.49;71.77
76853;BME280;65825;52.232;10.566;2023-04-24T00:21:11;99273.13;;;12.63;70.81
76853;BME280;65825;52.232;10.566;2023-04-24T00:23:36;99274.56;;;12.54;71.72
76853;BME280;65825;52.232;10.566;2023-04-24T00:26:02;99276.63;;;12.49;71.56
76853;BME280;65825;52.232;10.566;2023-04-24T00:28:27;99277.09;;;12.42;71.29
76853;BME280;65825;52.232;10.566;2023-04-24T00:30:52;99266.41;;;12.29;72.27
76853;BME280;65825;52.232;10.566;2023-04-24T00:33:17;99269.72;;;12.33;72.07
76853;BME280;65825;52.232;10.566;2023-04-24T00:35:43;99255.81;;;12.29;72.40
76853;BME280;65825;52.232;10.566;2023-04-24T00:38:08;99261.75;;;12.19;71.99
76853;BME280;65825;52.232;10.566;2023-04-24T00:40:33;99266.69;;;12.11;72.64
76853;BME280;65825;52.232;10.566;2023-04-24T00:42:58;99264.94;;;12.10;72.61
76853;BME280;65825;52.232;10.566;2023-04-24T00:45:24;99251.84;;;12.08;72.63
76853;BME280;65825;52.232;10.566;2023-04-24T00:47:51;99263.72;;;12.01;73.45
76853;BME280;65825;52.232;10.566;2023-04-24T00:50:17;99260.59;;;11.95;73.50
76853;BME280;65825;52.232;10.566;2023-04-24T00:52:43;99258.13;;;11.92;72.88
76853;BME280;65825;52.232;10.566;2023-04-24T00:55:08;99267.47;;;11.83;73.35
76853;BME280;65825;52.232;10.566;2023-04-24T00:57:34;99266.81;;;11.80;74.06
76853;BME280;65825;52.232;10.566;2023-04-24T00:59:59;99267.16;;;11.74;74.63
76853;BME280;65825;52.232;10.566;2023-04-24T01:02:25;99269.22;;;11.69;74.71
76853;BME280;65825;52.232;10.566;2023-04-24T01:04:51;99270.63;;;11.74;74.97
76853;BME280;65825;52.232;10.566;2023-04-24T01:07:19;99270.41;;;11.63;74.36
76853;BME280;65825;52.232;10.566;2023-04-24T01:09:47;99263.75;;;11.56;74.96
76853;BME280;65825;52.232;10.566;2023-04-24T01:12:14;99274.84;;;11.63;74.34
76853;BME280;65825;52.232;10.566;2023-04-24T01:14:40;99270.69;;;11.59;74.84
76853;BME280;65825;52.232;10.566;2023-04-24T01:17:06;99265.81;;;11.67;73.79
76853;BME280;65825;52.232;10.566;2023-04-24T01:19:32;99261.28;;;11.69;74.06
76853;BME280;65825;52.232;10.566;2023-04-24T01:21:58;99270.25;;;11.66;74.09
76853;BME280;65825;52.232;10.566;2023-04-24T01:24:24;99265.06;;;11.65;74.92
76853;BME280;65825;52.232;10.566;2023-04-24T01:26:49;99269.38;;;11.66;74.75
76853;BME280;65825;52.232;10.566;2023-04-24T01:29:15;99268.34;;;11.53;74.79
76853;BME280;65825;52.232;10.566;2023-04-24T01:31:40;99270.09;;;11.54;74.36
76853;BME280;65825;52.232;10.566;2023-04-24T01:34:06;99262.22;;;11.52;74.66
76853;BME280;65825;52.232;10.566;2023-04-24T01:36:32;99263.25;;;11.50;74.06
76853;BME280;65825;52.232;10.566;2023-04-24T01:38:58;99266.66;;;11.52;75.23
76853;BME280;65825;52.232;10.566;2023-04-24T01:41:23;99258.22;;;11.45;74.96
76853;BME280;65825;52.232;10.566;2023-04-24T01:43:50;99270.59;;;11.45;74.96
76853;BME280;65825;52.232;10.566;2023-04-24T01:46:15;99264.09;;;11.50;74.72
76853;BME280;65825;52.232;10.566;2023-04-24T01:48:41;99260.31;;;11.40;75.10
76853;BME280;65825;52.232;10.566;2023-04-24T01:51:06;99263.03;;;11.39;75.38
76853;BME280;65825;52.232;10.566;2023-04-24T01:53:32;99260.38;;;11.39;75.12
76853;BME280;65825;52.232;10.566;2023-04-24T01:55:57;99263.47;;;11.31;75.59
76853;BME280;65825;52.232;10.566;2023-04-24T01:58:23;99264.31;;;11.32;74.99
76853;BME280;65825;52.232;10.566;2023-04-24T02:00:48;99263.28;;;11.34;75.71
76853;BME280;65825;52.232;10.566;2023-04-24T02:03:13;99262.59;;;11.31;76.14
76853;BME280;65825;52.232;10.566;2023-04-24T02:05:38;99266.84;;;11.33;75.42
76853;BME280;65825;52.232;10.566;2023-04-24T02:08:04;99273.41;;;11.42;75.34
76853;BME280;65825;52.232;10.566;2023-04-24T02:10:29;99270.16;;;11.37;74.93
76853;BME280;65825;52.232;10.566;2023-04-24T02:12:54;99270.72;;;11.28;75.03
76853;BME280;65825;52.232;10.566;2023-04-24T02:15:20;99270.53;;;11.31;75.21
76853;BME280;65825;52.232;10.566;2023-04-24T02:17:45;99278.72;;;11.26;75.43
76853;BME280;65825;52.232;10.566;2023-04-24T02:20:10;99278.28;;;11.18;75.84
76853;BME280;65825;52.232;10.566;2023-04-24T02:22:36;99274.38;;;11.10;76.65
76853;BME280;65825;52.232;10.566;2023-04-24T02:25:01;99271.81;;;11.08;76.48
76853;BME280;65825;52.232;10.566;2023-04-24T02:27:27;99263.13;;;11.06;76.85
76853;BME280;65825;52.232;10.566;2023-04-24T02:29:52;99261.25;;;11.08;75.71
76853;BME280;65825;52.232;10.566;2023-04-24T02:32:17;99257.84;;;11.06;76.17
76853;BME280;65825;52.232;10.566;2023-04-24T02:34:43;99260.59;;;11.05;76.14
76853;BME280;65825;52.232;10.566;2023-04-24T02:37:08;99259.91;;;11.01;76.20
76853;BME280;65825;52.232;10.566;2023-04-24T02:39:33;99262.09;;;10.93;77.27
76853;BME280;65825;52.232;10.566;2023-04-24T02:41:59;99261.19;;;10.94;77.31
76853;BME280;65825;52.232;10.566;2023-04-24T02:44:25;99260.75;;;10.86;77.44
76853;BME280;65825;52.232;10.566;2023-04-24T02:46:50;99255.13;;;10.92;76.85
76853;BME280;65825;52.232;10.566;2023-04-24T02:49:15;99257.94;;;10.74;77.46
76853;BME280;65825;52.232;10.566;2023-04-24T02:51:41;99256.56;;;10.67;78.21
76853;BME280;65825;52.232;10.566;2023-04-24T02:54:07;99251.72;;;10.59;78.43
76853;BME280;65825;52.232;10.566;2023-04-24T02:56:34;99241.09;;;10.61;78.16
76853;BME280;65825;52.232;10.566;2023-04-24T02:58:59;99250.16;;;10.55;79.29
76853;BME280;65825;52.232;10.566;2023-04-24T03:01:24;99252.81;;;10.55;78.40
76853;BME280;65825;52.232;10.566;2023-04-24T03:03:50;99246.84;;;10.52;78.05
76853;BME280;65825;52.232;10.566;2023-04-24T03:06:15;99247.94;;;10.48;78.88
76853;BME280;65825;52.232;10.566;2023-04-24T03:08:40;99247.94;;;10.48;77.99
76853;BME280;65825;52.232;10.566;2023-04-24T03:11:06;99251.78;;;10.42;78.02
76853;BME280;65825;52.232;10.566;2023-04-24T03:13:31;99250.56;;;10.48;77.22
76853;BME280;65825;52.232;10.566;2023-04-24T03:15:56;99242.66;;;10.48;77.17
76853;BME280;65825;52.232;10.566;2023-04-24T03:18:21;99250.75;;;10.45;77.50
76853;BME280;65825;52.232;10.566;2023-04-24T03:20:47;99248.63;;;10.51;76.12
76853;BME280;65825;52.232;10.566;2023-04-24T03:23:12;99250.16;;;10.55;75.97
76853;BME280;65825;52.232;10.566;2023-04-24T03:25:37;99243.19;;;10.54;75.38
76853;BME280;65825;52.232;10.566;2023-04-24T03:28:04;99237.31;;;10.49;76.03
76853;BME280;65825;52.232;10.566;2023-04-24T03:30:29;99238.06;;;10.51;75.04
76853;BME280;65825;52.232;10.566;2023-04-24T03:32:55;99244.03;;;10.55;74.91
76853;BME280;65825;52.232;10.566;2023-04-24T03:35:20;99230.41;;;10.62;74.57
76853;BME280;65825;52.232;10.566;2023-04-24T03:37:47;99236.72;;;10.60;74.88
76853;BME280;65825;52.232;10.566;2023-04-24T03:40:12;99240.47;;;10.56;74.92
76853;BME280;65825;52.232;10.566;2023-04-24T03:42:37;99229.41;;;10.49;74.58
76853;BME280;65825;52.232;10.566;2023-04-24T03:45:03;99224.19;;;10.48;75.00
76853;BME280;65825;52.232;10.566;2023-04-24T03:47:28;99221.28;;;10.37;75.81
76853;BME280;65825;52.232;10.566;2023-04-24T03:49:53;99205.53;;;10.35;75.55
76853;BME280;65825;52.232;10.566;2023-04-24T03:52:20;99205.00;;;10.29;76.24
76853;BME280;65825;52.232;10.566;2023-04-24T03:54:46;99216.50;;;10.28;76.00
76853;BME280;65825;52.232;10.566;2023-04-24T03:57:11;99216.34;;;10.31;75.81
76853;BME280;65825;52.232;10.566;2023-04-24T03:59:36;99218.19;;;10.29;75.80
76853;BME280;65825;52.232;10.566;2023-04-24T04:02:01;99215.56;;;10.29;76.02
76853;BME280;65825;52.232;10.566;2023-04-24T04:04:27;99217.69;;;10.22;76.81
76853;BME280;65825;52.232;10.566;2023-04-24T04:06:52;99215.81;;;10.24;77.01
76853;BME280;65825;52.232;10.566;2023-04-24T04:09:18;99217.19;;;10.31;76.52
76853;BME280;65825;52.232;10.566;2023-04-24T04:11:43;99224.25;;;10.31;76.14
76853;BME280;65825;52.232;10.566;2023-04-24T04:14:09;99220.00;;;10.28;76.23
76853;BME280;65825;52.232;10.566;2023-04-24T04:16:34;99219.81;;;10.31;76.20
76853;BME280;65825;52.232;10.566;2023-04-24T04:19:01;99217.91;;;10.35;76.41
76853;BME280;65825;52.232;10.566;2023-04-24T04:21:27;99222.03;;;10.39;76.54
76853;BME280;65825;52.232;10.566;2023-04-24T04:23:53;99221.81;;;10.43;75.84
76853;BME280;65825;52.232;10.566;2023-04-24T04:26:18;99231.09;;;10.50;75.28
76853;BME280;65825;52.232;10.566;2023-04-24T04:28:44;99230.75;;;10.56;75.67
76853;BME280;65825;52.232;10.566;2023-04-24T04:31:09;99224.38;;;10.60;75.90
76853;BME280;65825;52.232;10.566;2023-04-24T04:33:35;99238.44;;;10.61;75.89
76853;BME280;65825;52.232;10.566;2023-04-24T04:36:01;99243.19;;;10.70;75.67
76853;BME280;65825;52.232;10.566;2023-04-24T04:38:27;99244.22;;;10.67;75.60
76853;BME280;65825;52.232;10.566;2023-04-24T04:40:55;99242.38;;;10.69;75.26
76853;BME280;65825;52.232;10.566;2023-04-24T04:43:22;99241.56;;;10.67;75.56
76853;BME280;65825;52.232;10.566;2023-04-24T04:45:47;99232.16;;;10.63;76.29
76853;BME280;65825;52.232;10.566;2023-04-24T04:48:13;99241.75;;;10.64;76.05
76853;BME280;65825;52.232;10.566;2023-04-24T04:50:39;99243.19;;;10.70;75.64
76853;BME280;65825;52.232;10.566;2023-04-24T04:53:04;99241.00;;;10.78;75.80
76853;BME280;65825;52.232;10.566;2023-04-24T04:55:30;99244.03;;;10.86;75.46
76853;BME280;65825;52.232;10.566;2023-04-24T04:57:56;99252.41;;;10.94;74.93
76853;BME280;65825;52.232;10.566;2023-04-24T05:00:21;99251.47;;;10.95;74.78
76853;BME280;65825;52.232;10.566;2023-04-24T05:02:47;99258.97;;;11.18;74.03
76853;BME280;65825;52.232;10.566;2023-04-24T05:05:12;99269.09;;;11.10;74.34
76853;BME280;65825;52.232;10.566;2023-04-24T05:07:37;99267.22;;;11.43;73.01
76853;BME280;65825;52.232;10.566;2023-04-24T05:10:03;99267.09;;;11.44;72.78
76853;BME280;65825;52.232;10.566;2023-04-24T05:12:28;99262.97;;;11.54;73.08
76853;BME280;65825;52.232;10.566;2023-04-24T05:14:54;99276.28;;;11.53;72.33
76853;BME280;65825;52.232;10.566;2023-04-24T05:17:19;99269.38;;;11.66;71.90
76853;BME280;65825;52.232;10.566;2023-04-24T05:19:44;99265.56;;;11.71;71.79
76853;BME280;65825;52.232;10.566;2023-04-24T05:22:10;99265.63;;;11.70;71.87
76853;BME280;65825;52.232;10.566;2023-04-24T05:24:36;99264.84;;;11.68;71.83
76853;BME280;65825;52.232;10.566;2023-04-24T05:27:02;99249.38;;;11.46;72.01
76853;BME280;65825;52.232;10.566;2023-04-24T05:29:29;99251.38;;;11.57;71.18
76853;BME280;65825;52.232;10.566;2023-04-24T05:31:58;99244.56;;;11.53;72.26
76853;BME280;65825;52.232;10.566;2023-04-24T05:34:24;99247.41;;;11.50;71.96
76853;BME280;65825;52.232;10.566;2023-04-24T05:36:49;99248.53;;;11.61;71.96
76853;BME280;65825;52.232;10.566;2023-04-24T05:39:15;99255.22;;;11.67;72.25
76853;BME280;65825;52.232;10.566;2023-04-24T05:41:41;99256.75;;;11.71;71.64
76853;BME280;65825;52.232;10.566;2023-04-24T05:44:06;99259.78;;;11.79;71.66
76853;BME280;65825;52.232;10.566;2023-04-24T05:46:31;99254.63;;;11.91;71.24
76853;BME280;65825;52.232;10.566;2023-04-24T05:48:56;99255.69;;;12.03;70.96
76853;BME280;65825;52.232;10.566;2023-04-24T05:51:23;99253.72;;;12.06;70.84
76853;BME280;65825;52.232;10.566;2023-04-24T05:53:48;99257.59;;;12.15;70.77
76853;BME280;65825;52.232;10.566;2023-04-24T05:56:14;99258.56;;;12.28;71.02
76853;BME280;65825;52.232;10.566;2023-04-24T05:58:40;99256.84;;;12.55;69.09
76853;BME280;65825;52.232;10.566;2023-04-24T06:01:08;99257.78;;;12.96;68.30
76853;BME280;65825;52.232;10.566;2023-04-24T06:03:33;99258.38;;;13.27;68.36
76853;BME280;65825;52.232;10.566;2023-04-24T06:05:59;99257.94;;;13.60;67.12
76853;BME280;65825;52.232;10.566;2023-04-24T06:08:24;99263.03;;;13.89;64.94
76853;BME280;65825;52.232;10.566;2023-04-24T06:10:49;99263.06;;;14.02;63.91
76853;BME280;65825;52.232;10.566;2023-04-24T06:13:15;99267.31;;;14.29;63.33
76853;BME280;65825;52.232;10.566;2023-04-24T06:15:41;99259.25;;;14.31;62.39
76853;BME280;65825;52.232;10.566;2023-04-24T06:18:06;99262.97;;;14.28;63.28
76853;BME280;65825;52.232;10.566;2023-04-24T06:20:32;99271.56;;;14.19;63.38
76853;BME280;65825;52.232;10.566;2023-04-24T06:22:57;99266.66;;;14.13;63.87
76853;BME280;65825;52.232;10.566;2023-04-24T06:25:25;99271.50;;;13.82;65.25
76853;BME280;65825;52.232;10.566;2023-04-24T06:27:51;99278.38;;;13.72;65.83
76853;BME280;65825;52.232;10.566;2023-04-24T06:30:16;99283.50;;;13.08;68.35
76853;BME280;65825;52.232;10.566;2023-04-24T06:32:41;99268.00;;;13.02;69.17
76853;BME280;65825;52.232;10.566;2023-04-24T06:35:07;99274.53;;;12.96;69.43
76853;BME280;65825;52.232;10.566;2023-04-24T06:37:34;99267.25;;;13.00;70.19
76853;BME280;65825;52.232;10.566;2023-04-24T06:39:59;99271.59;;;13.01;70.29
76853;BME280;65825;52.232;10.566;2023-04-24T06:42:25;99262.03;;;13.12;70.07
76853;BME280;65825;52.232;10.566;2023-04-24T06:44:51;99263.09;;;12.96;71.82
76853;BME280;65825;52.232;10.566;2023-04-24T06:47:16;99269.09;;;13.12;70.57
76853;BME280;65825;52.232;10.566;2023-04-24T06:49:41;99267.47;;;13.23;69.33
76853;BME280;65825;52.232;10.566;2023-04-24T06:52:07;99257.19;;;13.19;70.24
76853;BME280;65825;52.232;10.566;2023-04-24T06:54:33;99266.91;;;13.18;70.75
76853;BME280;65825;52.232;10.566;2023-04-24T06:56:59;99267.94;;;13.30;69.74
76853;BME280;65825;52.232;10.566;2023-04-24T06:59:25;99268.75;;;13.30;68.83
76853;BME280;65825;52.232;10.566;2023-04-24T07:01:53;99264.09;;;13.60;68.39
76853;BME280;65825;52.232;10.566;2023-04-24T07:04:18;99265.72;;;14.14;67.17
76853;BME280;65825;52.232;10.566;2023-04-24T07:06:45;99262.38;;;13.98;66.06
76853;BME280;65825;52.232;10.566;2023-04-24T07:09:11;99268.09;;;13.92;66.15
76853;BME280;65825;52.232;10.566;2023-04-24T07:11:38;99262.56;;;14.47;65.00
76853;BME280;65825;52.232;10.566;2023-04-24T07:14:05;99259.91;;;15.44;62.61
76853;BME280;65825;52.232;10.566;2023-04-24T07:16:31;99252.53;;;16.84;56.66
76853;BME280;65825;52.232;10.566;2023-04-24T07:18:56;99255.28;;;18.62;52.42
76853;BME280;65825;52.232;10.566;2023-04-24T07:21:21;99256.00;;;18.02;52.15
76853;BME280;65825;52.232;10.566;2023-04-24T07:23:47;99259.03;;;17.24;54.97
76853;BME280;65825;52.232;10.566;2023-04-24T07:26:12;99257.38;;;16.68;56.08
76853;BME280;65825;52.232;10.566;2023-04-24T07:28:39;99266.03;;;16.37;57.79
76853;BME280;65825;52.232;10.566;2023-04-24T07:31:04;99280.66;;;16.66;56.47
76853;BME280;65825;52.232;10.566;2023-04-24T07:33:30;99271.72;;;18.97;49.34
76853;BME280;65825;52.232;10.566;2023-04-24T07:35:55;99274.31;;;19.47;47.41
76853;BME280;65825;52.232;10.566;2023-04-24T07:38:21;99275.66;;;17.70;51.42
76853;BME280;65825;52.232;10.566;2023-04-24T07:40:47;99299.53;;;15.83;57.64
76853;BME280;65825;52.232;10.566;2023-04-24T07:43:13;99333.00;;;14.77;58.54
76853;BME280;65825;52.232;10.566;2023-04-24T07:45:38;99333.78;;;13.36;100.00
76853;BME280;65825;52.232;10.566;2023-04-24T07:48:04;99330.75;;;12.30;100.00
76853;BME280;65825;52.232;10.566;2023-04-24T07:50:30;99327.03;;;12.62;100.00
76853;BME280;65825;52.232;10.566;2023-04-24T07:52:55;99334.97;;;12.76;100.00
76853;BME280;65825;52.232;10.566;2023-04-24T07:55:20;99333.53;;;12.56;84.29
76853;BME280;65825;52.232;10.566;2023-04-24T07:57:45;99341.66;;;12.53;84.91
76853;BME280;65825;52.232;10.566;2023-04-24T08:00:11;99338.72;;;12.44;82.90
76853;BME280;65825;52.232;10.566;2023-04-24T08:02:37;99347.88;;;12.38;79.31
76853;BME280;65825;52.232;10.566;2023-04-24T08:05:05;99345.34;;;12.51;79.25
76853;BME280;65825;52.232;10.566;2023-04-24T08:07:31;99347.22;;;13.33;73.56
76853;BME280;65825;52.232;10.566;2023-04-24T08:09:57;99358.06;;;13.83;72.22
76853;BME280;65825;52.232;10.566;2023-04-24T08:12:22;99354.63;;;13.68;70.72
76853;BME280;65825;52.232;10.566;2023-04-24T08:14:48;99363.34;;;13.97;69.01
76853;BME280;65825;52.232;10.566;2023-04-24T08:17:13;99357.50;;;13.25;70.21
76853;BME280;65825;52.232;10.566;2023-04-24T08:19:40;99354.22;;;13.48;72.02
76853;BME280;65825;52.232;10.566;2023-04-24T08:22:08;99348.06;;;13.47;70.30
76853;BME280;65825;52.232;10.566;2023-04-24T08:24:33;99345.59;;;14.24;67.92
76853;BME280;65825;52.232;10.566;2023-04-24T08:26:58;99352.06;;;15.07;64.22
76853;BME280;65825;52.232;10.566;2023-04-24T08:29:24;99352.78;;;16.17;60.59
76853;BME280;65825;52.232;10.566;2023-04-24T08:31:49;99349.47;;;17.16;55.24
76853;BME280;65825;52.232;10.566;2023-04-24T08:34:15;99355.78;;;15.66;58.80
76853;BME280;65825;52.232;10.566;2023-04-24T08:36:40;99364.28;;;15.94;60.32
76853;BME280;65825;52.232;10.566;2023-04-24T08:39:06;99364.59;;;23.53;39.75
76853;BME280;65825;52.232;10.566;2023-04-24T08:41:34;99372.75;;;26.16;31.55
76853;BME280;65825;52.232;10.566;2023-04-24T08:44:00;99369.91;;;27.95;28.59
76853;BME280;65825;52.232;10.566;2023-04-24T08:46:27;99347.94;;;23.50;36.40
76853;BME280;65825;52.232;10.566;2023-04-24T08:48:52;99365.63;;;27.57;28.37
76853;BME280;65825;52.232;10.566;2023-04-24T08:51:18;99338.78;;;26.14;28.73
76853;BME280;65825;52.232;10.566;2023-04-24T08:53:45;99375.50;;;20.69;39.66
76853;BME280;65825;52.232;10.566;2023-04-24T08:56:11;99348.28;;;20.26;38.70
76853;BME280;65825;52.232;10.566;2023-04-24T08:58:38;99347.50;;;24.28;30.28
76853;BME280;65825;52.232;10.566;2023-04-24T09:01:04;99350.06;;;19.08;41.71
76853;BME280;65825;52.232;10.566;2023-04-24T09:03:31;99353.72;;;18.57;42.51
76853;BME280;65825;52.232;10.566;2023-04-24T09:05:56;99366.25;;;16.61;46.06
76853;BME280;65825;52.232;10.566;2023-04-24T09:08:24;99366.91;;;17.31;45.78
76853;BME280;65825;52.232;10.566;2023-04-24T09:10:50;99354.06;;;17.03;46.09
76853;BME280;65825;52.232;10.566;2023-04-24T09:13:16;99355.44;;;24.30;31.97
76853;BME280;65825;52.232;10.566;2023-04-24T09:15:42;99368.53;;;18.29;42.74
76853;BME280;65825;52.232;10.566;2023-04-24T09:18:07;99359.16;;;16.38;46.35
76853;BME280;65825;52.232;10.566;2023-04-24T09:20:33;99366.78;;;15.85;46.75
76853;BME280;65825;52.232;10.566;2023-04-24T09:23:01;99358.66;;;16.33;47.78
76853;BME280;65825;52.232;10.566;2023-04-24T09:25:33;99360.94;;;16.72;47.29
76853;BME280;65825;52.232;10.566;2023-04-24T09:28:02;99355.09;;;25.67;28.85
76853;BME280;65825;52.232;10.566;2023-04-24T09:30:28;99360.47;;;33.49;19.62
76853;BME280;65825;52.232;10.566;2023-04-24T09:33:10;99341.41;;;27.55;24.57
76853;BME280;65825;52.232;10.566;2023-04-24T09:35:35;99346.44;;;25.33;28.17
76853;BME280;65825;52.232;10.566;2023-04-24T09:38:00;99360.19;;;20.98;34.01
76853;BME280;65825;52.232;10.566;2023-04-24T09:40:26;99367.06;;;18.36;39.18
76853;BME280;65825;52.232;10.566;2023-04-24T09:42:53;99367.41;;;17.14;42.28
76853;BME280;65825;52.232;10.566;2023-04-24T09:45:18;99369.59;;;15.94;43.41
76853;BME280;65825;52.232;10.566;2023-04-24T09:47:44;99381.44;;;15.18;45.54
76853;BME280;65825;52.232;10.566;2023-04-24T09:50:11;99369.72;;;15.21;46.51
76853;BME280;65825;52.232;10.566;2023-04-24T09:52:39;99375.97;;;15.32;46.36
76853;BME280;65825;52.232;10.566;2023-04-24T09:55:10;99375.50;;;16.68;43.92
76853;BME280;65825;52.232;10.566;2023-04-24T09:57:47;99372.25;;;20.08;37.48
76853;BME280;65825;52.232;10.566;2023-04-24T10:00:12;99396.25;;;20.57;35.93
76853;BME280;65825;52.232;10.566;2023-04-24T10:02:38;99382.06;;;24.41;29.64
76853;BME280;65825;52.232;10.566;2023-04-24T10:05:04;99377.34;;;20.59;35.48
76853;BME280;65825;52.232;10.566;2023-04-24T10:07:32;99379.50;;;18.15;38.95
76853;BME280;65825;52.232;10.566;2023-04-24T10:09:57;99369.81;;;19.17;38.26
76853;BME280;65825;52.232;10.566;2023-04-24T10:12:23;99370.81;;;17.49;40.68
76853;BME280;65825;52.232;10.566;2023-04-24T10:14:50;99397.66;;;20.33;37.29
76853;BME280;65825;52.232;10.566;2023-04-24T10:17:15;99371.69;;;18.34;38.58
76853;BME280;65825;52.232;10.566;2023-04-24T10:19:42;99364.75;;;17.25;41.91
76853;BME280;65825;52.232;10.566;2023-04-24T10:22:08;99362.06;;;16.81;44.10
76853;BME280;65825;52.232;10.566;2023-04-24T10:24:34;99368.09;;;16.61;44.22
76853;BME280;65825;52.232;10.566;2023-04-24T10:27:03;99377.31;;;15.63;43.13
76853;BME280;65825;52.232;10.566;2023-04-24T10:29:31;99374.19;;;16.16;42.24
76853;BME280;65825;52.232;10.566;2023-04-24T10:31:56;99375.25;;;16.37;42.30
76853;BME280;65825;52.232;10.566;2023-04-24T10:34:22;99376.53;;;18.40;37.08
76853;BME280;65825;52.232;10.566;2023-04-24T10:36:51;99390.66;;;17.01;40.86
76853;BME280;65825;52.232;10.566;2023-04-24T10:39:18;99392.28;;;16.58;42.54
76853;BME280;65825;52.232;10.566;2023-04-24T10:41:46;99395.19;;;15.84;43.44
76853;BME280;65825;52.232;10.566;2023-04-24T10:44:15;99400.31;;;15.51;44.33
76853;BME280;65825;52.232;10.566;2023-04-24T10:46:46;99393.78;;;16.73;41.82
76853;BME280;65825;52.232;10.566;2023-04-24T10:49:14;99400.25;;;16.47;42.36
76853;BME280;65825;52.232;10.566;2023-04-24T10:51:53;99396.63;;;16.24;43.44
76853;BME280;65825;52.232;10.566;2023-04-24T10:54:29;99407.84;;;15.57;43.77
76853;BME280;65825;52.232;10.566;2023-04-24T10:59:49;99405.13;;;15.46;44.56
76853;BME280;65825;52.232;10.566;2023-04-24T11:02:16;99396.38;;;16.40;43.07
76853;BME280;65825;52.232;10.566;2023-04-24T11:04:42;99420.53;;;22.65;31.80
76853;BME280;65825;52.232;10.566;2023-04-24T11:07:09;99401.91;;;27.56;22.29
76853;BME280;65825;52.232;10.566;2023-04-24T11:09:34;99401.59;;;22.75;28.92
76853;BME280;65825;52.232;10.566;2023-04-24T11:12:06;99407.09;;;20.56;33.47
76853;BME280;65825;52.232;10.566;2023-04-24T11:17:28;99412.41;;;21.59;32.31
76853;BME280;65825;52.232;10.566;2023-04-24T11:20:01;99384.44;;;25.78;24.13
76853;BME280;65825;52.232;10.566;2023-04-24T11:22:28;99399.25;;;29.53;19.47
76853;BME280;65825;52.232;10.566;2023-04-24T11:24:56;99401.41;;;22.51;29.43
76853;BME280;65825;52.232;10.566;2023-04-24T11:27:22;99396.53;;;30.27;19.18
76853;BME280;65825;52.232;10.566;2023-04-24T11:37:34;99391.22;;;19.17;35.09
76853;BME280;65825;52.232;10.566;2023-04-24T11:40:01;99402.22;;;17.56;36.89
76853;BME280;65825;52.232;10.566;2023-04-24T11:42:27;99396.75;;;17.69;37.32
76853;BME280;65825;52.232;10.566;2023-04-24T11:44:53;99397.50;;;17.60;37.36
76853;BME280;65825;52.232;10.566;2023-04-24T11:47:27;99403.06;;;17.46;37.74
76853;BME280;65825;52.232;10.566;2023-04-24T11:49:53;99405.06;;;17.97;37.20
76853;BME280;65825;52.232;10.566;2023-04-24T11:52:19;99408.09;;;18.87;36.15
76853;BME280;65825;52.232;10.566;2023-04-24T11:54:48;99406.75;;;18.41;36.16
76853;BME280;65825;52.232;10.566;2023-04-24T11:57:14;99397.63;;;17.47;38.67
76853;BME280;65825;52.232;10.566;2023-04-24T11:59:42;99416.75;;;16.63;40.97
76853;BME280;65825;52.232;10.566;2023-04-24T12:02:07;99404.34;;;16.16;41.14
76853;BME280;65825;52.232;10.566;2023-04-24T12:04:39;99412.22;;;16.87;40.72
76853;BME280;65825;52.232;10.566;2023-04-24T12:07:06;99402.22;;;17.67;39.47
76853;BME280;65825;52.232;10.566;2023-04-24T12:12:08;99401.91;;;18.35;37.72
76853;BME280;65825;52.232;10.566;2023-04-24T12:14:42;99409.22;;;18.33;37.65
76853;BME280;65825;52.232;10.566;2023-04-24T12:17:07;99408.34;;;28.69;22.37
76853;BME280;65825;52.232;10.566;2023-04-24T12:19:33;99413.47;;;33.30;18.11
76853;BME280;65825;52.232;10.566;2023-04-24T12:22:03;99403.19;;;27.45;23.50
76853;BME280;65825;52.232;10.566;2023-04-24T12:24:30;99379.41;;;24.73;26.18
76853;BME280;65825;52.232;10.566;2023-04-24T12:26:55;99405.13;;;20.20;33.37
76853;BME280;65825;52.232;10.566;2023-04-24T12:29:21;99393.84;;;18.46;37.53
76853;BME280;65825;52.232;10.566;2023-04-24T12:31:47;99405.63;;;17.47;39.02
76853;BME280;65825;52.232;10.566;2023-04-24T12:34:23;99405.38;;;16.61;42.47
76853;BME280;65825;52.232;10.566;2023-04-24T12:36:48;99408.84;;;16.50;43.53
76853;BME280;65825;52.232;10.566;2023-04-24T12:39:17;99404.88;;;18.21;40.80
76853;BME280;65825;52.232;10.566;2023-04-24T12:41:58;99405.44;;;30.62;20.99
76853;BME280;65825;52.232;10.566;2023-04-24T12:44:34;99394.84;;;23.39;30.04
76853;BME280;65825;52.232;10.566;2023-04-24T12:47:02;99402.03;;;20.62;34.63
76853;BME280;65825;52.232;10.566;2023-04-24T12:49:30;99407.84;;;19.41;36.98
76853;BME280;65825;52.232;10.566;2023-04-24T12:51:55;99414.00;;;18.07;39.04
76853;BME280;65825;52.232;10.566;2023-04-24T12:54:21;99405.50;;;16.36;42.34
76853;BME280;65825;52.232;10.566;2023-04-24T12:56:47;99399.41;;;15.99;44.93
76853;BME280;65825;52.232;10.566;2023-04-24T12:59:12;99410.44;;;14.96;50.65
76853;BME280;65825;52.232;10.566;2023-04-24T13:01:37;99422.84;;;14.46;53.55